Terminal Aerodrome Forecast
Issued by NWS

Home | Current Version | Previous Version | Text Only | Print | Product List | Glossary On
Versions: 1 2 3 4 5 6 7 8 9 10 11 12 13
000
FTUS45 KABQ 201120
TAFAEG
TAF
KAEG 201120Z 2012/2112 24006KT P6SM SCT250
     FM201900 24011KT P6SM SKC
     FM210200 23008KT P6SM SKC
     FM210900 VRB04KT P6SM SKC=

USA.gov is the U.S. government's official web portal to all federal, state and local government web resources and services.